createdAt,value
2022-08-27T00:01:22.257Z,99.13
2022-08-27T00:03:49.990Z,99.87
2022-08-27T00:06:19.633Z,99.46
2022-08-27T00:08:48.705Z,99.63
2022-08-27T00:11:19.099Z,99.98
2022-08-27T00:13:47.010Z,99.19
2022-08-27T00:16:16.230Z,99.64
2022-08-27T00:18:48.148Z,99.79
2022-08-27T00:21:16.404Z,99.71
2022-08-27T00:23:44.432Z,100.00
2022-08-27T00:26:12.131Z,100.00
2022-08-27T00:28:41.646Z,99.85
2022-08-27T00:31:12.621Z,100.00
2022-08-27T00:33:40.674Z,100.00
2022-08-27T00:36:08.993Z,100.00
2022-08-27T00:38:38.414Z,100.00
2022-08-27T00:41:06.713Z,99.64
2022-08-27T00:43:47.543Z,99.45
2022-08-27T00:46:21.149Z,99.85
2022-08-27T00:48:49.341Z,99.48
2022-08-27T00:51:16.902Z,99.57
2022-08-27T00:53:44.440Z,100.00
2022-08-27T00:56:17.849Z,100.00
2022-08-27T00:58:48.764Z,99.83
2022-08-27T01:01:20.083Z,99.86
2022-08-27T01:03:50.735Z,99.19
2022-08-27T01:06:19.320Z,99.10
2022-08-27T01:08:50.628Z,99.70
2022-08-27T01:11:18.712Z,99.50
2022-08-27T01:14:00.270Z,98.86
2022-08-27T01:16:39.412Z,98.85
2022-08-27T01:19:11.278Z,98.92
2022-08-27T01:21:44.825Z,99.06
2022-08-27T01:24:25.150Z,99.37
2022-08-27T01:26:52.813Z,99.68
2022-08-27T01:29:20.725Z,99.25
2022-08-27T01:31:48.514Z,98.93
2022-08-27T01:34:16.422Z,98.73
2022-08-27T01:36:44.013Z,99.87
2022-08-27T01:39:11.587Z,99.86
2022-08-27T01:41:41.877Z,99.68
2022-08-27T01:44:09.342Z,99.61
2022-08-27T01:46:36.980Z,99.46
2022-08-27T01:49:04.709Z,99.58
2022-08-27T01:51:32.193Z,99.92
2022-08-27T01:53:59.749Z,99.95
2022-08-27T01:56:27.258Z,99.96
2022-08-27T01:58:56.056Z,99.70
2022-08-27T02:01:23.898Z,99.66
2022-08-27T02:03:51.500Z,99.71
2022-08-27T02:06:19.088Z,99.94
2022-08-27T02:08:46.634Z,99.36
2022-08-27T02:11:14.149Z,99.22
2022-08-27T02:13:41.654Z,99.05
2022-08-27T02:16:10.538Z,99.08
2022-08-27T02:18:38.417Z,98.60
2022-08-27T02:21:09.288Z,98.42
2022-08-27T02:23:36.793Z,98.98
2022-08-27T02:26:04.466Z,98.84
2022-08-27T02:28:32.112Z,98.90
2022-08-27T02:31:00.982Z,98.69
2022-08-27T02:33:31.789Z,98.57
2022-08-27T02:35:59.325Z,98.27
2022-08-27T02:38:26.962Z,98.43
2022-08-27T02:40:54.562Z,98.59
2022-08-27T02:43:23.623Z,97.99
2022-08-27T02:45:52.690Z,98.66
2022-08-27T02:48:20.577Z,98.11
2022-08-27T02:50:49.394Z,98.04
2022-08-27T02:53:16.909Z,98.77
2022-08-27T02:55:44.909Z,98.38
2022-08-27T02:58:15.425Z,97.74
2022-08-27T03:00:43.309Z,98.18
2022-08-27T03:03:11.447Z,98.34
2022-08-27T03:05:39.493Z,97.89
2022-08-27T03:08:08.691Z,97.34
2022-08-27T03:10:36.490Z,97.41
2022-08-27T03:13:04.020Z,96.96
2022-08-27T03:15:31.501Z,96.63
2022-08-27T03:18:16.641Z,97.09
2022-08-27T03:20:45.633Z,97.31
2022-08-27T03:23:15.562Z,97.64
2022-08-27T03:25:45.545Z,97.06
2022-08-27T03:28:23.570Z,96.60
2022-08-27T03:30:52.142Z,96.63
2022-08-27T03:33:20.576Z,96.69
2022-08-27T03:35:51.651Z,96.34
2022-08-27T03:38:21.698Z,96.61
2022-08-27T03:40:49.572Z,96.72
2022-08-27T03:43:18.581Z,96.59
2022-08-27T03:46:00.323Z,96.92
2022-08-27T03:48:30.371Z,96.62
2022-08-27T03:50:57.865Z,96.13
2022-08-27T03:53:26.718Z,96.51
2022-08-27T03:55:54.213Z,95.95
2022-08-27T03:58:24.852Z,96.31
2022-08-27T04:00:52.388Z,96.68
2022-08-27T04:03:19.940Z,95.95
2022-08-27T04:05:53.597Z,95.46
2022-08-27T04:08:21.569Z,95.31
2022-08-27T04:10:50.936Z,94.87
2022-08-27T04:13:18.995Z,94.85
2022-08-27T04:15:47.763Z,95.18
2022-08-27T04:18:16.649Z,95.89
2022-08-27T04:20:44.642Z,95.42
2022-08-27T04:23:12.166Z,95.36
2022-08-27T04:25:40.428Z,95.48
2022-08-27T04:28:09.610Z,94.81
2022-08-27T04:30:39.898Z,94.84
2022-08-27T04:33:07.394Z,94.40
2022-08-27T04:35:35.269Z,94.63
2022-08-27T04:38:02.851Z,94.27
2022-08-27T04:40:55.881Z,94.13
2022-08-27T04:43:24.814Z,93.89
2022-08-27T04:45:52.325Z,94.19
2022-08-27T04:48:20.133Z,94.34
2022-08-27T04:50:48.653Z,94.25
2022-08-27T04:53:17.987Z,94.31
2022-08-27T04:55:46.957Z,94.25
2022-08-27T04:58:14.950Z,93.97
2022-08-27T05:00:45.064Z,93.33
2022-08-27T05:03:13.245Z,93.15
2022-08-27T05:05:41.622Z,92.75
2022-08-27T05:08:13.017Z,93.00
2022-08-27T05:10:42.214Z,92.69
2022-08-27T05:13:10.369Z,92.98
2022-08-27T05:15:38.076Z,92.82
2022-08-27T05:18:09.491Z,93.19
2022-08-27T05:20:43.160Z,92.52
2022-08-27T05:23:11.277Z,92.85
2022-08-27T05:25:40.044Z,92.54
2022-08-27T05:28:07.569Z,92.32
2022-08-27T05:30:38.494Z,92.29
2022-08-27T05:33:08.342Z,91.83
2022-08-27T05:35:41.005Z,91.56
2022-08-27T05:38:09.742Z,91.77
2022-08-27T05:40:37.488Z,91.27
2022-08-27T05:43:05.365Z,91.30
2022-08-27T05:45:33.161Z,91.27
2022-08-27T05:48:00.878Z,90.73
2022-08-27T05:50:29.788Z,91.04
2022-08-27T05:52:57.338Z,90.81
2022-08-27T05:55:24.877Z,90.39
2022-08-27T05:57:52.362Z,90.52
2022-08-27T06:00:37.570Z,90.40
2022-08-27T06:03:05.640Z,89.92
2022-08-27T06:05:34.499Z,90.78
2022-08-27T06:08:02.247Z,91.03
2022-08-27T06:10:29.776Z,90.40
2022-08-27T06:12:57.287Z,90.11
2022-08-27T06:15:24.872Z,90.27
2022-08-27T06:17:52.555Z,89.91
2022-08-27T06:20:20.756Z,90.21
2022-08-27T06:22:49.749Z,89.39
2022-08-27T06:25:17.417Z,90.09
2022-08-27T06:27:44.929Z,89.07
2022-08-27T06:30:16.991Z,89.52
2022-08-27T06:32:45.313Z,89.49
2022-08-27T06:35:12.863Z,89.48
2022-08-27T06:37:40.430Z,88.81
2022-08-27T06:40:11.607Z,88.16
2022-08-27T06:42:39.305Z,87.96
2022-08-27T06:45:08.394Z,87.79
2022-08-27T06:47:35.889Z,87.56
2022-08-27T06:50:03.605Z,88.01
2022-08-27T06:52:31.684Z,87.29
2022-08-27T06:54:59.132Z,86.89
2022-08-27T06:57:28.570Z,87.21
2022-08-27T06:59:56.081Z,86.78
2022-08-27T07:02:23.860Z,86.10
2022-08-27T07:04:53.746Z,86.49
2022-08-27T07:07:31.784Z,86.13
2022-08-27T07:10:07.437Z,85.57
2022-08-27T07:12:36.309Z,85.21
2022-08-27T07:15:04.797Z,84.63
2022-08-27T07:17:32.511Z,84.81
2022-08-27T07:20:00.080Z,83.22
2022-08-27T07:22:28.965Z,83.61
2022-08-27T07:24:56.491Z,83.69
2022-08-27T07:27:24.042Z,83.69
2022-08-27T07:29:53.189Z,83.83
2022-08-27T07:32:20.778Z,83.49
2022-08-27T07:34:48.337Z,84.06
2022-08-27T07:37:15.933Z,83.05
2022-08-27T07:39:43.465Z,83.41
2022-08-27T07:42:28.629Z,82.35
2022-08-27T07:44:57.617Z,83.31
2022-08-27T07:47:25.309Z,83.35
2022-08-27T07:49:52.782Z,82.28
2022-08-27T07:52:23.579Z,82.11
2022-08-27T07:54:54.267Z,82.36
2022-08-27T07:57:21.870Z,81.92
2022-08-27T07:59:49.392Z,81.42
2022-08-27T08:02:18.271Z,80.19
2022-08-27T08:04:45.947Z,81.45
2022-08-27T08:07:13.623Z,80.86
2022-08-27T08:09:41.215Z,81.69
2022-08-27T08:12:09.005Z,81.29
2022-08-27T08:14:37.317Z,81.52
2022-08-27T08:17:06.375Z,82.27
2022-08-27T08:19:40.453Z,82.80
2022-08-27T08:22:08.538Z,82.25
2022-08-27T08:24:36.589Z,83.07
2022-08-27T08:27:07.340Z,82.81
2022-08-27T08:29:35.669Z,83.29
2022-08-27T08:32:04.816Z,82.81
2022-08-27T08:34:32.326Z,82.66
2022-08-27T08:37:01.193Z,82.12
2022-08-27T08:39:29.050Z,82.81
2022-08-27T08:41:58.282Z,83.07
2022-08-27T08:44:31.798Z,83.02
2022-08-27T08:47:03.270Z,82.21
2022-08-27T08:49:38.883Z,83.39
2022-08-27T08:52:26.938Z,82.81
2022-08-27T08:55:19.507Z,82.96
2022-08-27T08:57:50.593Z,81.89
2022-08-27T09:00:19.483Z,82.25
2022-08-27T09:02:53.195Z,82.29
2022-08-27T09:05:21.371Z,82.43
2022-08-27T09:08:31.060Z,82.85
2022-08-27T09:10:59.122Z,84.13
2022-08-27T09:13:29.205Z,83.74
2022-08-27T09:16:00.235Z,84.70
2022-08-27T09:18:28.290Z,84.27
2022-08-27T09:21:00.525Z,83.55
2022-08-27T09:23:40.453Z,84.87
2022-08-27T09:26:18.574Z,85.13
2022-08-27T09:29:03.880Z,85.48
2022-08-27T09:31:31.461Z,85.86
2022-08-27T09:33:59.047Z,87.34
2022-08-27T09:36:26.708Z,87.65
2022-08-27T09:39:01.732Z,88.35
2022-08-27T09:41:33.330Z,89.18
2022-08-27T09:44:02.510Z,89.78
2022-08-27T09:46:31.167Z,89.96
2022-08-27T09:48:58.709Z,90.22
2022-08-27T09:51:27.568Z,90.60
2022-08-27T09:53:58.618Z,89.61
2022-08-27T09:56:29.795Z,89.13
2022-08-27T09:59:02.591Z,89.59
2022-08-27T10:01:32.589Z,90.26
2022-08-27T10:04:09.209Z,90.06
2022-08-27T10:06:36.797Z,89.35
2022-08-27T10:09:09.600Z,89.19
2022-08-27T10:11:40.397Z,89.93
2022-08-27T10:14:14.417Z,89.96
2022-08-27T10:16:56.584Z,90.38
2022-08-27T10:19:35.787Z,90.42
2022-08-27T10:22:09.045Z,89.53
2022-08-27T10:24:43.172Z,88.93
2022-08-27T10:27:15.053Z,88.24
2022-08-27T10:29:49.994Z,87.59
2022-08-27T10:32:35.637Z,86.68
2022-08-27T10:35:10.019Z,87.62
2022-08-27T10:37:46.892Z,87.51
2022-08-27T10:40:19.350Z,87.55
2022-08-27T10:42:50.055Z,88.05
2022-08-27T10:45:31.897Z,88.04
2022-08-27T10:48:07.907Z,86.74
2022-08-27T10:50:42.562Z,85.76
2022-08-27T10:53:13.457Z,86.37
2022-08-27T10:55:45.863Z,85.59
2022-08-27T10:58:30.446Z,85.24
2022-08-27T11:01:05.166Z,83.39
2022-08-27T11:03:37.273Z,83.76
2022-08-27T11:06:15.221Z,82.94
2022-08-27T11:08:49.687Z,84.55
2022-08-27T11:12:03.170Z,84.74
2022-08-27T11:14:26.113Z,83.98
2022-08-27T11:16:56.555Z,82.15
2022-08-27T11:19:27.285Z,80.88
2022-08-27T11:22:02.354Z,81.02
2022-08-27T11:24:36.893Z,83.18
2022-08-27T11:27:08.189Z,82.74
2022-08-27T11:29:39.316Z,81.58
2022-08-27T11:32:22.141Z,82.24
2022-08-27T11:34:52.945Z,81.85
2022-08-27T11:37:30.031Z,81.62
2022-08-27T11:40:09.309Z,81.66
2022-08-27T11:42:41.920Z,82.65
2022-08-27T11:45:17.551Z,82.49
2022-08-27T11:47:52.470Z,81.61
2022-08-27T11:50:21.733Z,78.64
2022-08-27T11:52:58.965Z,79.26
2022-08-27T11:55:29.735Z,79.96
2022-08-27T11:58:08.433Z,77.23
2022-08-27T12:00:38.361Z,77.20
2022-08-27T12:03:09.929Z,78.53
2022-08-27T12:05:41.730Z,78.46
2022-08-27T12:08:15.408Z,78.29
2022-08-27T12:10:52.917Z,77.87
2022-08-27T12:13:24.806Z,77.10
2022-08-27T12:15:58.654Z,77.62
2022-08-27T12:18:50.522Z,75.73
2022-08-27T12:21:25.901Z,75.49
2022-08-27T12:24:19.278Z,75.88
2022-08-27T12:26:56.537Z,76.73
2022-08-27T12:29:35.289Z,75.79
2022-08-27T12:32:16.447Z,75.58
2022-08-27T12:34:45.940Z,74.01
2022-08-27T12:37:14.252Z,73.77
2022-08-27T12:39:44.594Z,71.91
2022-08-27T12:42:17.434Z,72.26
2022-08-27T12:44:46.338Z,71.63
2022-08-27T12:47:16.952Z,72.51
2022-08-27T12:49:52.568Z,72.77
2022-08-27T12:52:59.898Z,74.15
2022-08-27T12:55:37.220Z,75.25
2022-08-27T12:58:15.491Z,74.67
2022-08-27T13:01:16.754Z,74.74
2022-08-27T13:03:46.199Z,74.16
2022-08-27T13:06:18.825Z,75.88
2022-08-27T13:08:47.087Z,74.65
2022-08-27T13:11:21.713Z,75.19
2022-08-27T13:13:49.255Z,75.97
2022-08-27T13:16:20.176Z,75.10
2022-08-27T13:18:49.420Z,75.30
2022-08-27T13:21:23.285Z,73.66
2022-08-27T13:23:55.912Z,74.48
2022-08-27T13:26:25.006Z,74.83
2022-08-27T13:28:52.853Z,74.89
2022-08-27T13:31:23.762Z,72.41
2022-08-27T13:33:51.827Z,71.86
2022-08-27T13:36:28.468Z,70.84
2022-08-27T13:38:59.808Z,71.52
2022-08-27T13:41:30.999Z,71.62
2022-08-27T13:43:59.718Z,70.88
2022-08-27T13:46:31.194Z,71.50
2022-08-27T13:48:59.770Z,70.50
2022-08-27T13:51:29.972Z,67.80
2022-08-27T13:54:15.904Z,68.35
2022-08-27T13:57:03.317Z,67.97
2022-08-27T13:59:32.341Z,67.75
2022-08-27T14:02:04.530Z,66.73
2022-08-27T14:04:39.644Z,68.84
2022-08-27T14:07:10.233Z,68.62
2022-08-27T14:09:43.784Z,67.29
2022-08-27T14:12:11.881Z,69.50
2022-08-27T14:14:41.429Z,69.23
2022-08-27T14:17:25.783Z,69.40
2022-08-27T14:20:00.969Z,69.79
2022-08-27T14:22:28.769Z,69.64
2022-08-27T14:24:56.304Z,70.16
2022-08-27T14:27:23.769Z,71.30
2022-08-27T14:29:51.333Z,71.34
2022-08-27T14:32:21.100Z,70.46
2022-08-27T14:34:49.406Z,70.94
2022-08-27T14:37:17.037Z,71.39
2022-08-27T14:39:45.092Z,71.10
2022-08-27T14:42:14.421Z,71.10
2022-08-27T14:44:41.949Z,72.70
2022-08-27T14:47:10.240Z,73.05
2022-08-27T14:49:41.959Z,71.62
2022-08-27T14:52:10.436Z,70.76
2022-08-27T14:54:38.457Z,71.00
2022-08-27T14:57:07.052Z,72.44
2022-08-27T14:59:35.033Z,70.45
2022-08-27T15:02:05.348Z,70.11
2022-08-27T15:04:33.130Z,70.21
2022-08-27T15:07:02.109Z,70.34
2022-08-27T15:09:29.844Z,71.06
2022-08-27T15:11:58.006Z,69.38
2022-08-27T15:14:27.677Z,69.86
2022-08-27T15:16:55.441Z,68.54
2022-08-27T15:19:24.789Z,69.12
2022-08-27T15:21:53.113Z,69.28
2022-08-27T15:24:24.971Z,70.47
2022-08-27T15:26:53.331Z,68.99
2022-08-27T15:29:21.212Z,71.02
2022-08-27T15:31:48.679Z,69.50
2022-08-27T15:34:16.310Z,69.19
2022-08-27T15:36:43.973Z,70.27
2022-08-27T15:39:11.618Z,70.07
2022-08-27T15:42:11.430Z,69.98
2022-08-27T15:44:30.220Z,70.61
2022-08-27T15:46:57.784Z,70.05
2022-08-27T15:49:25.405Z,70.47
2022-08-27T15:51:53.044Z,70.71
2022-08-27T15:54:21.957Z,69.75
2022-08-27T15:56:50.885Z,69.86
2022-08-27T15:59:18.601Z,70.20
2022-08-27T16:01:46.772Z,70.76
2022-08-27T16:04:14.913Z,70.15
2022-08-27T16:06:42.401Z,69.96
2022-08-27T16:09:10.045Z,70.70
2022-08-27T16:11:37.596Z,69.41
2022-08-27T16:14:07.308Z,70.48
2022-08-27T16:16:35.165Z,69.21
2022-08-27T16:19:04.337Z,68.60
2022-08-27T16:21:34.751Z,68.53
2022-08-27T16:24:02.766Z,67.84
2022-08-27T16:26:30.317Z,68.91
2022-08-27T16:28:57.926Z,68.78
2022-08-27T16:31:26.790Z,68.84
2022-08-27T16:33:54.969Z,68.00
2022-08-27T16:36:22.512Z,68.50
2022-08-27T16:38:50.339Z,67.50
2022-08-27T16:41:18.128Z,67.45
2022-08-27T16:43:48.762Z,68.34
2022-08-27T16:46:17.064Z,68.88
2022-08-27T16:49:03.761Z,68.70
2022-08-27T16:51:34.650Z,68.44
2022-08-27T16:54:03.913Z,70.27
2022-08-27T16:56:36.376Z,70.05
2022-08-27T16:59:05.798Z,71.30
2022-08-27T17:01:34.150Z,70.78
2022-08-27T17:04:16.396Z,69.60
2022-08-27T17:06:51.450Z,69.21
2022-08-27T17:09:19.790Z,69.45
2022-08-27T17:11:52.788Z,70.31
2022-08-27T17:14:20.470Z,69.81
2022-08-27T17:16:49.325Z,68.58
2022-08-27T17:19:18.836Z,69.63
2022-08-27T17:21:46.860Z,69.89
2022-08-27T17:24:14.604Z,69.96
2022-08-27T17:26:42.110Z,69.56
2022-08-27T17:29:09.636Z,72.42
2022-08-27T17:31:39.246Z,70.62
2022-08-27T17:34:07.836Z,70.05
2022-08-27T17:36:36.809Z,71.58
2022-08-27T17:39:05.074Z,69.11
2022-08-27T17:41:36.525Z,71.48
2022-08-27T17:44:07.625Z,69.34
2022-08-27T17:46:35.225Z,68.71
2022-08-27T17:49:02.871Z,69.48
2022-08-27T17:51:30.640Z,68.97
2022-08-27T17:54:01.165Z,68.87
2022-08-27T17:56:30.241Z,70.99
2022-08-27T17:58:57.954Z,70.90
2022-08-27T18:01:28.468Z,72.39
2022-08-27T18:03:56.554Z,72.81
2022-08-27T18:06:24.536Z,71.02
2022-08-27T18:08:52.092Z,71.98
2022-08-27T18:11:21.212Z,73.59
2022-08-27T18:13:54.536Z,72.77
2022-08-27T18:16:22.183Z,72.18
2022-08-27T18:18:49.882Z,73.37
2022-08-27T18:21:17.628Z,75.03
2022-08-27T18:23:53.746Z,74.86
2022-08-27T18:26:24.644Z,75.85
2022-08-27T18:28:52.253Z,75.66
2022-08-27T18:31:21.006Z,75.53
2022-08-27T18:33:48.776Z,76.35
2022-08-27T18:36:16.944Z,74.70
2022-08-27T18:38:46.255Z,75.82
2022-08-27T18:41:14.643Z,75.55
2022-08-27T18:43:43.940Z,75.82
2022-08-27T18:46:12.260Z,76.46
2022-08-27T18:48:40.089Z,77.04
2022-08-27T18:51:10.120Z,77.30
2022-08-27T18:53:40.088Z,77.65
2022-08-27T18:56:08.644Z,78.29
2022-08-27T18:58:38.458Z,78.57
2022-08-27T19:01:10.226Z,77.93
2022-08-27T19:03:39.634Z,76.94
2022-08-27T19:06:09.704Z,76.54
2022-08-27T19:08:37.725Z,77.46
2022-08-27T19:11:05.429Z,74.34
2022-08-27T19:13:33.668Z,74.13
2022-08-27T19:16:03.677Z,75.98
2022-08-27T19:18:35.292Z,72.93
2022-08-27T19:21:03.337Z,72.71
2022-08-27T19:23:30.885Z,71.45
2022-08-27T19:26:01.338Z,72.17
2022-08-27T19:28:38.565Z,71.92
2022-08-27T19:31:07.095Z,72.65
2022-08-27T19:33:36.582Z,72.18
2022-08-27T19:36:04.757Z,72.65
2022-08-27T19:38:32.975Z,72.89
2022-08-27T19:41:00.840Z,73.57
2022-08-27T19:43:28.458Z,73.90
2022-08-27T19:45:58.007Z,74.90
2022-08-27T19:48:25.865Z,75.87
2022-08-27T19:50:55.849Z,76.82
2022-08-27T19:53:23.817Z,75.25
2022-08-27T19:55:51.519Z,76.45
2022-08-27T20:21:53.610Z,74.18
2022-08-27T20:24:21.258Z,73.87
2022-08-27T20:26:48.842Z,74.18
2022-08-27T20:29:32.247Z,74.58
2022-08-27T20:32:00.586Z,74.96
2022-08-27T20:34:29.567Z,75.44
2022-08-27T20:36:58.824Z,75.61
2022-08-27T20:39:26.419Z,74.62
2022-08-27T20:41:53.954Z,74.85
2022-08-27T20:44:21.523Z,74.50
2022-08-27T20:46:59.142Z,74.99
2022-08-27T20:49:27.822Z,74.60
2022-08-27T20:52:04.020Z,75.09
2022-08-27T20:54:34.668Z,75.28
2022-08-27T20:57:03.241Z,74.92
2022-08-27T20:59:48.948Z,75.86
2022-08-27T21:02:21.928Z,76.11
2022-08-27T21:04:49.726Z,75.97
2022-08-27T21:07:18.600Z,76.17
2022-08-27T21:09:56.459Z,76.38
2022-08-27T21:12:25.733Z,76.33
2022-08-27T21:14:54.944Z,76.56
2022-08-27T21:17:24.808Z,76.68
2022-08-27T21:19:52.517Z,77.49
2022-08-27T21:22:20.585Z,77.37
2022-08-27T21:24:49.693Z,77.57
2022-08-27T21:27:18.594Z,78.53
2022-08-27T21:29:47.677Z,79.29
2022-08-27T21:32:15.962Z,79.48
2022-08-27T21:34:43.822Z,80.01
2022-08-27T21:37:13.523Z,79.68
2022-08-27T21:39:42.362Z,80.82
2022-08-27T21:42:12.806Z,79.99
2022-08-27T21:44:40.763Z,82.43
2022-08-27T21:47:09.151Z,80.52
2022-08-27T21:49:36.663Z,80.24
2022-08-27T21:52:08.009Z,80.60
2022-08-27T21:54:37.489Z,79.29
2022-08-27T21:57:06.250Z,79.76
2022-08-27T21:59:40.935Z,79.13
2022-08-27T22:02:28.745Z,78.87
2022-08-27T22:04:56.720Z,79.58
2022-08-27T22:07:24.406Z,81.03
2022-08-27T22:09:51.963Z,80.49
2022-08-27T22:12:19.593Z,79.51
2022-08-27T22:14:48.527Z,79.65
2022-08-27T22:17:16.148Z,80.02
2022-08-27T22:19:43.859Z,78.99
2022-08-27T22:22:11.469Z,79.63
2022-08-27T22:24:39.026Z,79.08
2022-08-27T22:27:06.706Z,79.52
2022-08-27T22:29:34.246Z,79.94
2022-08-27T22:32:03.491Z,79.86
2022-08-27T22:34:31.066Z,80.13
2022-08-27T22:36:58.590Z,81.18
2022-08-27T22:39:26.221Z,80.72
2022-08-27T22:41:55.993Z,80.76
2022-08-27T22:44:23.585Z,81.52
2022-08-27T22:46:51.750Z,81.50
2022-08-27T22:49:22.804Z,80.60
2022-08-27T22:51:50.351Z,81.34
2022-08-27T22:54:18.331Z,80.63
2022-08-27T22:56:45.978Z,80.42
2022-08-27T22:59:13.572Z,80.12
2022-08-27T23:01:41.497Z,80.35
2022-08-27T23:04:09.252Z,79.45
2022-08-27T23:06:38.252Z,79.69
2022-08-27T23:09:05.843Z,80.74
2022-08-27T23:11:33.384Z,81.05
2022-08-27T23:14:01.724Z,80.95
2022-08-27T23:16:31.609Z,81.08
2022-08-27T23:18:59.255Z,82.01
2022-08-27T23:21:27.735Z,82.01
2022-08-27T23:23:56.589Z,82.43
2022-08-27T23:26:41.596Z,83.02
2022-08-27T23:29:11.081Z,82.73
2022-08-27T23:31:38.928Z,85.61
2022-08-27T23:34:06.470Z,86.10
2022-08-27T23:36:34.607Z,86.52
2022-08-27T23:39:03.474Z,86.65
2022-08-27T23:41:31.022Z,87.03
2022-08-27T23:43:58.598Z,87.35
2022-08-27T23:46:26.148Z,86.70
2022-08-27T23:48:53.785Z,86.36
2022-08-27T23:51:21.428Z,87.66
2022-08-27T23:53:48.978Z,87.65
2022-08-27T23:56:17.938Z,87.47
2022-08-27T23:58:45.451Z,88.84
